sensor_id;sensor_type;location;lat;lon;timestamp;temperature;humidity
17236;DHT22;8734;59.272;17.780;2022-11-22T00:01:18;1.60;99.90
17236;DHT22;8734;59.272;17.780;2022-11-22T00:03:47;1.60;99.90
17236;DHT22;8734;59.272;17.780;2022-11-22T00:06:17;1.60;99.90
17236;DHT22;8734;59.272;17.780;2022-11-22T00:08:45;1.60;99.90
17236;DHT22;8734;59.272;17.780;2022-11-22T00:11:14;1.60;99.90
17236;DHT22;8734;59.272;17.780;2022-11-22T00:13:42;1.70;99.90
17236;DHT22;8734;59.272;17.780;2022-11-22T00:16:12;1.70;99.90
17236;DHT22;8734;59.272;17.780;2022-11-22T00:18:40;1.60;99.90
17236;DHT22;8734;59.272;17.780;2022-11-22T00:21:08;1.70;99.90
17236;DHT22;8734;59.272;17.780;2022-11-22T00:23:39;1.60;99.90
17236;DHT22;8734;59.272;17.780;2022-11-22T00:26:07;1.60;99.90
17236;DHT22;8734;59.272;17.780;2022-11-22T00:28:38;1.60;99.90
17236;DHT22;8734;59.272;17.780;2022-11-22T00:31:06;1.60;99.90
17236;DHT22;8734;59.272;17.780;2022-11-22T00:33:35;1.60;99.90
17236;DHT22;8734;59.272;17.780;2022-11-22T00:36:03;1.60;99.90
17236;DHT22;8734;59.272;17.780;2022-11-22T00:38:31;1.60;99.90
17236;DHT22;8734;59.272;17.780;2022-11-22T00:41:01;1.60;99.90
17236;DHT22;8734;59.272;17.780;2022-11-22T00:43:29;1.70;99.90
17236;DHT22;8734;59.272;17.780;2022-11-22T00:45:58;1.60;99.90
17236;DHT22;8734;59.272;17.780;2022-11-22T00:48:27;1.60;99.90
17236;DHT22;8734;59.272;17.780;2022-11-22T00:50:55;1.60;99.90
17236;DHT22;8734;59.272;17.780;2022-11-22T00:53:24;1.60;99.90
17236;DHT22;8734;59.272;17.780;2022-11-22T00:55:52;1.70;99.90
17236;DHT22;8734;59.272;17.780;2022-11-22T00:58:22;1.70;99.90
17236;DHT22;8734;59.272;17.780;2022-11-22T01:00:50;1.70;99.90
17236;DHT22;8734;59.272;17.780;2022-11-22T01:03:22;1.70;99.90
17236;DHT22;8734;59.272;17.780;2022-11-22T01:05:51;1.70;99.90
17236;DHT22;8734;59.272;17.780;2022-11-22T01:08:19;1.70;99.90
17236;DHT22;8734;59.272;17.780;2022-11-22T01:10:47;1.70;99.90
17236;DHT22;8734;59.272;17.780;2022-11-22T01:13:16;1.70;99.90
17236;DHT22;8734;59.272;17.780;2022-11-22T01:15:46;1.60;99.90
17236;DHT22;8734;59.272;17.780;2022-11-22T01:18:14;1.60;99.90
17236;DHT22;8734;59.272;17.780;2022-11-22T01:20:43;1.60;99.90
17236;DHT22;8734;59.272;17.780;2022-11-22T01:23:11;1.60;99.90
17236;DHT22;8734;59.272;17.780;2022-11-22T01:25:41;1.60;99.90
17236;DHT22;8734;59.272;17.780;2022-11-22T01:28:11;1.60;99.90
17236;DHT22;8734;59.272;17.780;2022-11-22T01:30:40;1.60;99.90
17236;DHT22;8734;59.272;17.780;2022-11-22T01:33:10;1.60;99.90
17236;DHT22;8734;59.272;17.780;2022-11-22T01:35:40;1.60;99.90
17236;DHT22;8734;59.272;17.780;2022-11-22T01:38:09;1.60;99.90
17236;DHT22;8734;59.272;17.780;2022-11-22T01:40:37;1.60;99.90
17236;DHT22;8734;59.272;17.780;2022-11-22T01:43:15;1.60;99.90
17236;DHT22;8734;59.272;17.780;2022-11-22T01:45:49;1.60;99.90
17236;DHT22;8734;59.272;17.780;2022-11-22T01:48:47;1.60;99.90
17236;DHT22;8734;59.272;17.780;2022-11-22T01:51:23;1.60;99.90
17236;DHT22;8734;59.272;17.780;2022-11-22T01:53:54;1.60;99.90
17236;DHT22;8734;59.272;17.780;2022-11-22T01:56:24;1.60;99.90
17236;DHT22;8734;59.272;17.780;2022-11-22T01:58:57;1.60;99.90
17236;DHT22;8734;59.272;17.780;2022-11-22T02:01:28;1.60;99.90
17236;DHT22;8734;59.272;17.780;2022-11-22T02:04:01;1.60;99.90
17236;DHT22;8734;59.272;17.780;2022-11-22T02:06:38;1.60;99.90
17236;DHT22;8734;59.272;17.780;2022-11-22T02:09:10;1.60;99.90
17236;DHT22;8734;59.272;17.780;2022-11-22T02:11:44;1.60;99.90
17236;DHT22;8734;59.272;17.780;2022-11-22T02:14:15;1.60;99.90
17236;DHT22;8734;59.272;17.780;2022-11-22T02:16:47;1.60;99.90
17236;DHT22;8734;59.272;17.780;2022-11-22T02:19:25;1.60;99.90
17236;DHT22;8734;59.272;17.780;2022-11-22T02:22:02;1.60;99.90
17236;DHT22;8734;59.272;17.780;2022-11-22T02:24:38;1.60;99.90
17236;DHT22;8734;59.272;17.780;2022-11-22T02:27:10;1.70;99.90
17236;DHT22;8734;59.272;17.780;2022-11-22T02:29:41;1.60;99.90
17236;DHT22;8734;59.272;17.780;2022-11-22T02:32:10;1.60;99.90
17236;DHT22;8734;59.272;17.780;2022-11-22T02:34:44;1.60;99.90
17236;DHT22;8734;59.272;17.780;2022-11-22T02:37:16;1.70;99.90
17236;DHT22;8734;59.272;17.780;2022-11-22T02:39:47;1.60;99.90
17236;DHT22;8734;59.272;17.780;2022-11-22T02:42:19;1.70;99.90
17236;DHT22;8734;59.272;17.780;2022-11-22T02:44:48;1.60;99.90
17236;DHT22;8734;59.272;17.780;2022-11-22T02:47:16;1.60;99.90
17236;DHT22;8734;59.272;17.780;2022-11-22T02:49:45;1.60;99.90
17236;DHT22;8734;59.272;17.780;2022-11-22T02:52:15;1.70;99.90
17236;DHT22;8734;59.272;17.780;2022-11-22T02:54:44;1.60;99.90
17236;DHT22;8734;59.272;17.780;2022-11-22T02:57:13;1.60;99.90
17236;DHT22;8734;59.272;17.780;2022-11-22T02:59:42;1.70;99.90
17236;DHT22;8734;59.272;17.780;2022-11-22T03:02:11;1.70;99.90
17236;DHT22;8734;59.272;17.780;2022-11-22T03:04:39;1.70;99.90
17236;DHT22;8734;59.272;17.780;2022-11-22T03:07:08;1.70;99.90
17236;DHT22;8734;59.272;17.780;2022-11-22T03:09:36;1.70;99.90
17236;DHT22;8734;59.272;17.780;2022-11-22T03:12:05;1.70;99.90
17236;DHT22;8734;59.272;17.780;2022-11-22T03:14:33;1.60;99.90
17236;DHT22;8734;59.272;17.780;2022-11-22T03:17:03;1.60;99.90
17236;DHT22;8734;59.272;17.780;2022-11-22T03:19:31;1.70;99.90
17236;DHT22;8734;59.272;17.780;2022-11-22T03:22:00;1.70;99.90
17236;DHT22;8734;59.272;17.780;2022-11-22T03:24:28;1.70;99.90
17236;DHT22;8734;59.272;17.780;2022-11-22T03:26:56;1.70;99.90
17236;DHT22;8734;59.272;17.780;2022-11-22T03:29:25;1.70;99.90
17236;DHT22;8734;59.272;17.780;2022-11-22T03:31:53;1.70;99.90
17236;DHT22;8734;59.272;17.780;2022-11-22T03:34:23;1.70;99.90
17236;DHT22;8734;59.272;17.780;2022-11-22T03:36:51;1.70;99.90
17236;DHT22;8734;59.272;17.780;2022-11-22T03:39:19;1.70;99.90
17236;DHT22;8734;59.272;17.780;2022-11-22T03:41:48;1.70;99.90
17236;DHT22;8734;59.272;17.780;2022-11-22T03:44:16;1.70;99.90
17236;DHT22;8734;59.272;17.780;2022-11-22T03:46:45;1.70;99.90
17236;DHT22;8734;59.272;17.780;2022-11-22T03:49:14;1.70;99.90
17236;DHT22;8734;59.272;17.780;2022-11-22T03:51:43;1.60;99.90
17236;DHT22;8734;59.272;17.780;2022-11-22T03:54:12;1.60;99.90
17236;DHT22;8734;59.272;17.780;2022-11-22T03:56:41;1.60;99.90
17236;DHT22;8734;59.272;17.780;2022-11-22T03:59:09;1.60;99.90
17236;DHT22;8734;59.272;17.780;2022-11-22T04:01:37;1.50;99.90
17236;DHT22;8734;59.272;17.780;2022-11-22T04:04:06;1.50;99.90
17236;DHT22;8734;59.272;17.780;2022-11-22T04:06:34;1.50;99.90
17236;DHT22;8734;59.272;17.780;2022-11-22T04:09:04;1.50;99.90
17236;DHT22;8734;59.272;17.780;2022-11-22T04:11:34;1.60;99.90
17236;DHT22;8734;59.272;17.780;2022-11-22T04:14:02;1.60;99.90
17236;DHT22;8734;59.272;17.780;2022-11-22T04:16:48;1.60;99.90
17236;DHT22;8734;59.272;17.780;2022-11-22T04:19:16;1.50;99.90
17236;DHT22;8734;59.272;17.780;2022-11-22T04:21:45;1.50;99.90
17236;DHT22;8734;59.272;17.780;2022-11-22T04:24:14;1.50;99.90
17236;DHT22;8734;59.272;17.780;2022-11-22T04:26:59;1.50;99.90
17236;DHT22;8734;59.272;17.780;2022-11-22T04:29:28;1.40;99.90
17236;DHT22;8734;59.272;17.780;2022-11-22T04:31:57;1.40;99.90
17236;DHT22;8734;59.272;17.780;2022-11-22T04:34:44;1.40;99.90
17236;DHT22;8734;59.272;17.780;2022-11-22T04:37:12;1.30;99.90
17236;DHT22;8734;59.272;17.780;2022-11-22T04:39:42;1.30;99.90
17236;DHT22;8734;59.272;17.780;2022-11-22T04:42:11;1.20;99.90
17236;DHT22;8734;59.272;17.780;2022-11-22T04:44:56;1.20;99.90
17236;DHT22;8734;59.272;17.780;2022-11-22T04:47:25;1.20;99.90
17236;DHT22;8734;59.272;17.780;2022-11-22T04:50:16;1.10;99.90
17236;DHT22;8734;59.272;17.780;2022-11-22T04:53:02;1.10;99.90
17236;DHT22;8734;59.272;17.780;2022-11-22T04:55:32;1.20;99.90
17236;DHT22;8734;59.272;17.780;2022-11-22T04:58:00;1.20;99.90
17236;DHT22;8734;59.272;17.780;2022-11-22T05:00:30;1.20;99.90
17236;DHT22;8734;59.272;17.780;2022-11-22T05:02:58;1.30;99.90
17236;DHT22;8734;59.272;17.780;2022-11-22T05:05:27;1.30;99.90
17236;DHT22;8734;59.272;17.780;2022-11-22T05:07:57;1.40;99.90
17236;DHT22;8734;59.272;17.780;2022-11-22T05:10:26;1.40;99.90
17236;DHT22;8734;59.272;17.780;2022-11-22T05:12:55;1.40;99.90
17236;DHT22;8734;59.272;17.780;2022-11-22T05:15:24;1.40;99.90
17236;DHT22;8734;59.272;17.780;2022-11-22T05:17:52;1.40;99.90
17236;DHT22;8734;59.272;17.780;2022-11-22T05:20:20;1.40;99.90
17236;DHT22;8734;59.272;17.780;2022-11-22T05:22:48;1.40;99.90
17236;DHT22;8734;59.272;17.780;2022-11-22T05:25:46;1.40;99.90
17236;DHT22;8734;59.272;17.780;2022-11-22T05:28:16;1.40;99.90
17236;DHT22;8734;59.272;17.780;2022-11-22T05:30:44;1.30;99.90
17236;DHT22;8734;59.272;17.780;2022-11-22T05:33:12;1.40;99.90
17236;DHT22;8734;59.272;17.780;2022-11-22T05:35:41;1.40;99.90
17236;DHT22;8734;59.272;17.780;2022-11-22T05:38:09;1.40;99.90
17236;DHT22;8734;59.272;17.780;2022-11-22T05:40:38;1.40;99.90
17236;DHT22;8734;59.272;17.780;2022-11-22T05:43:06;1.40;99.90
17236;DHT22;8734;59.272;17.780;2022-11-22T05:45:36;1.40;99.90
17236;DHT22;8734;59.272;17.780;2022-11-22T05:48:04;1.40;99.90
17236;DHT22;8734;59.272;17.780;2022-11-22T05:50:33;1.50;99.90
17236;DHT22;8734;59.272;17.780;2022-11-22T05:53:01;1.50;99.90
17236;DHT22;8734;59.272;17.780;2022-11-22T05:55:30;1.50;99.90
17236;DHT22;8734;59.272;17.780;2022-11-22T05:57:58;1.50;99.90
17236;DHT22;8734;59.272;17.780;2022-11-22T06:00:27;1.50;99.90
17236;DHT22;8734;59.272;17.780;2022-11-22T06:03:00;1.60;99.90
17236;DHT22;8734;59.272;17.780;2022-11-22T06:05:30;1.60;99.90
17236;DHT22;8734;59.272;17.780;2022-11-22T06:07:58;1.60;99.90
17236;DHT22;8734;59.272;17.780;2022-11-22T06:10:28;1.60;99.90
17236;DHT22;8734;59.272;17.780;2022-11-22T06:12:57;1.60;99.90
17236;DHT22;8734;59.272;17.780;2022-11-22T06:15:25;1.60;99.90
17236;DHT22;8734;59.272;17.780;2022-11-22T06:17:53;1.50;99.90
17236;DHT22;8734;59.272;17.780;2022-11-22T06:20:23;1.40;99.90
17236;DHT22;8734;59.272;17.780;2022-11-22T06:22:51;1.30;99.90
17236;DHT22;8734;59.272;17.780;2022-11-22T06:25:20;1.30;99.90
17236;DHT22;8734;59.272;17.780;2022-11-22T06:27:49;1.20;99.90
17236;DHT22;8734;59.272;17.780;2022-11-22T06:30:17;1.20;99.90
17236;DHT22;8734;59.272;17.780;2022-11-22T06:32:46;1.20;99.90
17236;DHT22;8734;59.272;17.780;2022-11-22T06:35:14;1.20;99.90
17236;DHT22;8734;59.272;17.780;2022-11-22T06:37:43;1.30;99.90
17236;DHT22;8734;59.272;17.780;2022-11-22T06:40:12;1.30;99.90
17236;DHT22;8734;59.272;17.780;2022-11-22T06:42:41;1.30;99.90
17236;DHT22;8734;59.272;17.780;2022-11-22T06:45:10;1.40;99.90
17236;DHT22;8734;59.272;17.780;2022-11-22T06:47:38;1.30;99.90
17236;DHT22;8734;59.272;17.780;2022-11-22T06:50:07;1.30;99.90
17236;DHT22;8734;59.272;17.780;2022-11-22T06:52:35;1.30;99.90
17236;DHT22;8734;59.272;17.780;2022-11-22T06:55:07;1.30;99.90
17236;DHT22;8734;59.272;17.780;2022-11-22T06:57:55;1.30;99.90
17236;DHT22;8734;59.272;17.780;2022-11-22T07:00:24;1.30;99.90
17236;DHT22;8734;59.272;17.780;2022-11-22T07:02:52;1.30;99.90
17236;DHT22;8734;59.272;17.780;2022-11-22T07:05:20;1.30;99.90
17236;DHT22;8734;59.272;17.780;2022-11-22T07:07:52;1.30;99.90
17236;DHT22;8734;59.272;17.780;2022-11-22T07:10:29;1.30;99.90
17236;DHT22;8734;59.272;17.780;2022-11-22T07:12:58;1.40;99.90
17236;DHT22;8734;59.272;17.780;2022-11-22T07:15:26;1.50;99.90
17236;DHT22;8734;59.272;17.780;2022-11-22T07:17:54;1.50;99.90
17236;DHT22;8734;59.272;17.780;2022-11-22T07:20:23;1.50;99.90
17236;DHT22;8734;59.272;17.780;2022-11-22T07:22:51;1.60;99.90
17236;DHT22;8734;59.272;17.780;2022-11-22T07:25:19;1.60;99.90
17236;DHT22;8734;59.272;17.780;2022-11-22T07:27:50;1.60;99.90
17236;DHT22;8734;59.272;17.780;2022-11-22T07:30:19;1.60;99.90
17236;DHT22;8734;59.272;17.780;2022-11-22T07:32:48;1.60;99.90
17236;DHT22;8734;59.272;17.780;2022-11-22T07:35:16;1.60;99.90
17236;DHT22;8734;59.272;17.780;2022-11-22T07:37:44;1.60;99.90
17236;DHT22;8734;59.272;17.780;2022-11-22T07:40:13;1.70;99.90
17236;DHT22;8734;59.272;17.780;2022-11-22T07:42:41;1.70;99.90
17236;DHT22;8734;59.272;17.780;2022-11-22T07:45:11;1.60;99.90
17236;DHT22;8734;59.272;17.780;2022-11-22T07:47:40;1.70;99.90
17236;DHT22;8734;59.272;17.780;2022-11-22T07:50:09;1.70;99.90
17236;DHT22;8734;59.272;17.780;2022-11-22T07:52:37;1.70;99.90
17236;DHT22;8734;59.272;17.780;2022-11-22T07:55:06;1.80;99.90
17236;DHT22;8734;59.272;17.780;2022-11-22T07:57:40;1.70;99.90
17236;DHT22;8734;59.272;17.780;2022-11-22T08:00:11;1.80;99.90
17236;DHT22;8734;59.272;17.780;2022-11-22T08:02:40;1.80;99.90
17236;DHT22;8734;59.272;17.780;2022-11-22T08:05:08;1.80;99.90
17236;DHT22;8734;59.272;17.780;2022-11-22T08:07:37;1.80;99.90
17236;DHT22;8734;59.272;17.780;2022-11-22T08:10:08;1.80;99.90
17236;DHT22;8734;59.272;17.780;2022-11-22T08:12:36;1.80;99.90
17236;DHT22;8734;59.272;17.780;2022-11-22T08:15:06;1.90;99.90
17236;DHT22;8734;59.272;17.780;2022-11-22T08:17:36;1.80;99.90
17236;DHT22;8734;59.272;17.780;2022-11-22T08:20:06;1.90;99.90
17236;DHT22;8734;59.272;17.780;2022-11-22T08:22:37;1.80;99.90
17236;DHT22;8734;59.272;17.780;2022-11-22T08:25:07;1.90;99.90
17236;DHT22;8734;59.272;17.780;2022-11-22T08:27:39;1.90;99.90
17236;DHT22;8734;59.272;17.780;2022-11-22T08:30:08;1.90;99.90
17236;DHT22;8734;59.272;17.780;2022-11-22T08:32:38;1.90;99.90
17236;DHT22;8734;59.272;17.780;2022-11-22T08:35:07;2.00;99.90
17236;DHT22;8734;59.272;17.780;2022-11-22T08:37:36;2.00;99.90
17236;DHT22;8734;59.272;17.780;2022-11-22T08:40:05;2.00;99.90
17236;DHT22;8734;59.272;17.780;2022-11-22T08:42:33;2.00;99.90
17236;DHT22;8734;59.272;17.780;2022-11-22T08:45:03;2.10;99.90
17236;DHT22;8734;59.272;17.780;2022-11-22T08:47:31;2.10;99.90
17236;DHT22;8734;59.272;17.780;2022-11-22T08:50:01;2.20;99.90
17236;DHT22;8734;59.272;17.780;2022-11-22T08:52:29;2.30;99.90
17236;DHT22;8734;59.272;17.780;2022-11-22T08:54:58;2.30;99.90
17236;DHT22;8734;59.272;17.780;2022-11-22T08:57:27;2.40;99.90
17236;DHT22;8734;59.272;17.780;2022-11-22T08:59:55;2.40;99.90
17236;DHT22;8734;59.272;17.780;2022-11-22T09:02:24;2.40;99.90
17236;DHT22;8734;59.272;17.780;2022-11-22T09:04:52;2.40;99.90
17236;DHT22;8734;59.272;17.780;2022-11-22T09:07:21;2.40;99.90
17236;DHT22;8734;59.272;17.780;2022-11-22T09:10:10;2.40;99.90
17236;DHT22;8734;59.272;17.780;2022-11-22T09:12:42;2.40;99.90
17236;DHT22;8734;59.272;17.780;2022-11-22T09:15:11;2.30;99.90
17236;DHT22;8734;59.272;17.780;2022-11-22T09:17:39;2.30;99.90
17236;DHT22;8734;59.272;17.780;2022-11-22T09:20:08;2.30;99.90
17236;DHT22;8734;59.272;17.780;2022-11-22T09:22:39;2.30;99.90
17236;DHT22;8734;59.272;17.780;2022-11-22T09:25:08;2.30;99.90
17236;DHT22;8734;59.272;17.780;2022-11-22T09:27:36;2.30;99.90
17236;DHT22;8734;59.272;17.780;2022-11-22T09:30:06;2.30;99.90
17236;DHT22;8734;59.272;17.780;2022-11-22T09:32:34;2.30;99.90
17236;DHT22;8734;59.272;17.780;2022-11-22T09:35:02;2.30;99.90
17236;DHT22;8734;59.272;17.780;2022-11-22T09:37:32;2.20;99.90
17236;DHT22;8734;59.272;17.780;2022-11-22T09:40:02;2.30;99.90
17236;DHT22;8734;59.272;17.780;2022-11-22T09:42:57;2.30;99.90
17236;DHT22;8734;59.272;17.780;2022-11-22T09:45:53;2.30;99.90
17236;DHT22;8734;59.272;17.780;2022-11-22T09:48:33;2.30;99.90
17236;DHT22;8734;59.272;17.780;2022-11-22T09:51:07;2.30;99.90
17236;DHT22;8734;59.272;17.780;2022-11-22T09:53:39;2.30;99.90
17236;DHT22;8734;59.272;17.780;2022-11-22T09:56:14;2.30;99.90
17236;DHT22;8734;59.272;17.780;2022-11-22T09:58:46;2.20;99.90
17236;DHT22;8734;59.272;17.780;2022-11-22T10:01:21;2.20;99.90
17236;DHT22;8734;59.272;17.780;2022-11-22T10:03:54;2.20;99.90
17236;DHT22;8734;59.272;17.780;2022-11-22T10:06:27;2.20;99.90
17236;DHT22;8734;59.272;17.780;2022-11-22T10:09:03;2.20;99.90
17236;DHT22;8734;59.272;17.780;2022-11-22T10:11:41;2.10;99.90
17236;DHT22;8734;59.272;17.780;2022-11-22T10:14:24;2.10;99.90
17236;DHT22;8734;59.272;17.780;2022-11-22T10:16:56;2.20;99.90
17236;DHT22;8734;59.272;17.780;2022-11-22T10:19:30;2.10;99.90
17236;DHT22;8734;59.272;17.780;2022-11-22T10:22:09;2.20;99.90
17236;DHT22;8734;59.272;17.780;2022-11-22T10:24:37;2.30;99.90
17236;DHT22;8734;59.272;17.780;2022-11-22T10:27:11;2.40;99.90
17236;DHT22;8734;59.272;17.780;2022-11-22T10:29:43;2.50;99.90
17236;DHT22;8734;59.272;17.780;2022-11-22T10:32:19;2.60;99.90
17236;DHT22;8734;59.272;17.780;2022-11-22T10:35:02;2.60;99.90
17236;DHT22;8734;59.272;17.780;2022-11-22T10:37:42;2.60;99.90
17236;DHT22;8734;59.272;17.780;2022-11-22T10:40:16;2.50;99.90
17236;DHT22;8734;59.272;17.780;2022-11-22T10:43:05;2.50;99.90
17236;DHT22;8734;59.272;17.780;2022-11-22T10:45:40;2.40;99.90
17236;DHT22;8734;59.272;17.780;2022-11-22T10:48:16;2.40;99.90
17236;DHT22;8734;59.272;17.780;2022-11-22T10:50:55;2.40;99.90
17236;DHT22;8734;59.272;17.780;2022-11-22T10:53:39;2.40;99.90
17236;DHT22;8734;59.272;17.780;2022-11-22T10:56:16;2.40;99.90
17236;DHT22;8734;59.272;17.780;2022-11-22T10:59:09;2.40;99.90
17236;DHT22;8734;59.272;17.780;2022-11-22T11:01:46;2.40;99.90
17236;DHT22;8734;59.272;17.780;2022-11-22T11:04:18;2.40;99.90
17236;DHT22;8734;59.272;17.780;2022-11-22T11:06:49;2.40;99.90
17236;DHT22;8734;59.272;17.780;2022-11-22T11:09:41;2.40;99.90
17236;DHT22;8734;59.272;17.780;2022-11-22T11:12:37;2.40;99.90
17236;DHT22;8734;59.272;17.780;2022-11-22T11:15:16;2.40;99.90
17236;DHT22;8734;59.272;17.780;2022-11-22T11:17:50;2.40;99.90
17236;DHT22;8734;59.272;17.780;2022-11-22T11:20:24;2.40;99.90
17236;DHT22;8734;59.272;17.780;2022-11-22T11:22:53;2.40;99.90
17236;DHT22;8734;59.272;17.780;2022-11-22T11:25:42;2.40;99.90
17236;DHT22;8734;59.272;17.780;2022-11-22T11:28:16;2.40;99.90
17236;DHT22;8734;59.272;17.780;2022-11-22T11:30:49;2.40;99.90
17236;DHT22;8734;59.272;17.780;2022-11-22T11:33:22;2.40;99.90
17236;DHT22;8734;59.272;17.780;2022-11-22T11:35:55;2.50;99.90
17236;DHT22;8734;59.272;17.780;2022-11-22T11:38:32;2.50;99.90
17236;DHT22;8734;59.272;17.780;2022-11-22T11:41:17;2.50;99.90
17236;DHT22;8734;59.272;17.780;2022-11-22T11:43:47;2.60;99.90
17236;DHT22;8734;59.272;17.780;2022-11-22T11:46:19;2.60;99.90
17236;DHT22;8734;59.272;17.780;2022-11-22T11:48:48;2.60;99.90
17236;DHT22;8734;59.272;17.780;2022-11-22T11:51:24;2.70;99.90
17236;DHT22;8734;59.272;17.780;2022-11-22T11:53:56;2.70;99.90
17236;DHT22;8734;59.272;17.780;2022-11-22T11:56:45;2.70;99.90
17236;DHT22;8734;59.272;17.780;2022-11-22T11:59:16;2.80;99.90
17236;DHT22;8734;59.272;17.780;2022-11-22T12:01:56;2.80;99.90
17236;DHT22;8734;59.272;17.780;2022-11-22T12:04:28;2.80;99.90
17236;DHT22;8734;59.272;17.780;2022-11-22T12:07:02;2.80;99.90
17236;DHT22;8734;59.272;17.780;2022-11-22T12:09:35;2.80;99.90
17236;DHT22;8734;59.272;17.780;2022-11-22T12:12:11;2.80;99.90
17236;DHT22;8734;59.272;17.780;2022-11-22T12:14:45;2.80;99.90
17236;DHT22;8734;59.272;17.780;2022-11-22T12:17:41;2.80;99.90
17236;DHT22;8734;59.272;17.780;2022-11-22T12:20:14;2.90;99.90
17236;DHT22;8734;59.272;17.780;2022-11-22T12:22:53;2.90;99.90
17236;DHT22;8734;59.272;17.780;2022-11-22T12:25:31;2.90;99.90
17236;DHT22;8734;59.272;17.780;2022-11-22T12:28:10;2.90;99.90
17236;DHT22;8734;59.272;17.780;2022-11-22T12:30:41;2.90;99.90
17236;DHT22;8734;59.272;17.780;2022-11-22T12:33:17;3.00;99.90
17236;DHT22;8734;59.272;17.780;2022-11-22T12:35:47;2.90;99.90
17236;DHT22;8734;59.272;17.780;2022-11-22T12:38:19;3.00;99.90
17236;DHT22;8734;59.272;17.780;2022-11-22T12:40:51;3.00;99.90
17236;DHT22;8734;59.272;17.780;2022-11-22T12:43:23;3.00;99.90
17236;DHT22;8734;59.272;17.780;2022-11-22T12:45:55;3.00;99.90
17236;DHT22;8734;59.272;17.780;2022-11-22T12:48:29;2.90;99.90
17236;DHT22;8734;59.272;17.780;2022-11-22T12:51:05;2.80;99.90
17236;DHT22;8734;59.272;17.780;2022-11-22T12:53:39;2.70;99.90
17236;DHT22;8734;59.272;17.780;2022-11-22T12:56:16;2.60;99.90
17236;DHT22;8734;59.272;17.780;2022-11-22T12:58:51;2.50;99.90
17236;DHT22;8734;59.272;17.780;2022-11-22T13:01:24;2.40;99.90
17236;DHT22;8734;59.272;17.780;2022-11-22T13:04:01;2.20;99.90
17236;DHT22;8734;59.272;17.780;2022-11-22T13:06:36;2.10;99.90
17236;DHT22;8734;59.272;17.780;2022-11-22T13:09:12;2.10;99.90
17236;DHT22;8734;59.272;17.780;2022-11-22T13:11:47;2.00;99.90
17236;DHT22;8734;59.272;17.780;2022-11-22T13:14:21;1.90;99.90
17236;DHT22;8734;59.272;17.780;2022-11-22T13:16:50;1.80;99.90
17236;DHT22;8734;59.272;17.780;2022-11-22T13:19:22;1.80;99.90
17236;DHT22;8734;59.272;17.780;2022-11-22T13:22:04;1.70;99.90
17236;DHT22;8734;59.272;17.780;2022-11-22T13:24:42;1.60;99.90
17236;DHT22;8734;59.272;17.780;2022-11-22T13:27:17;1.60;99.90
17236;DHT22;8734;59.272;17.780;2022-11-22T13:29:49;1.50;99.90
17236;DHT22;8734;59.272;17.780;2022-11-22T13:32:19;1.50;99.90
17236;DHT22;8734;59.272;17.780;2022-11-22T13:35:06;1.40;99.90
17236;DHT22;8734;59.272;17.780;2022-11-22T13:37:45;1.40;99.90
17236;DHT22;8734;59.272;17.780;2022-11-22T13:40:24;1.30;99.90
17236;DHT22;8734;59.272;17.780;2022-11-22T13:43:46;1.30;99.90
17236;DHT22;8734;59.272;17.780;2022-11-22T13:46:54;1.20;99.90
17236;DHT22;8734;59.272;17.780;2022-11-22T13:49:31;1.10;99.90
17236;DHT22;8734;59.272;17.780;2022-11-22T13:52:29;1.00;99.90
17236;DHT22;8734;59.272;17.780;2022-11-22T13:55:25;0.90;99.90
17236;DHT22;8734;59.272;17.780;2022-11-22T13:57:54;0.90;99.90
17236;DHT22;8734;59.272;17.780;2022-11-22T14:00:44;0.80;99.90
17236;DHT22;8734;59.272;17.780;2022-11-22T14:03:35;0.80;99.90
17236;DHT22;8734;59.272;17.780;2022-11-22T14:06:28;0.70;99.90
17236;DHT22;8734;59.272;17.780;2022-11-22T14:09:35;0.70;99.90
17236;DHT22;8734;59.272;17.780;2022-11-22T14:12:38;0.70;99.90
17236;DHT22;8734;59.272;17.780;2022-11-22T14:15:33;0.70;99.90
17236;DHT22;8734;59.272;17.780;2022-11-22T14:18:16;0.80;99.90
17236;DHT22;8734;59.272;17.780;2022-11-22T14:20:59;0.80;99.90
17236;DHT22;8734;59.272;17.780;2022-11-22T14:23:37;0.90;99.90
17236;DHT22;8734;59.272;17.780;2022-11-22T14:26:19;0.90;99.90
17236;DHT22;8734;59.272;17.780;2022-11-22T14:29:13;0.90;99.90
17236;DHT22;8734;59.272;17.780;2022-11-22T14:31:51;1.00;99.90
17236;DHT22;8734;59.272;17.780;2022-11-22T14:34:22;1.00;99.90
17236;DHT22;8734;59.272;17.780;2022-11-22T14:40:18;1.00;99.90
17236;DHT22;8734;59.272;17.780;2022-11-22T14:43:01;1.10;99.90
17236;DHT22;8734;59.272;17.780;2022-11-22T14:45:40;1.10;99.90
17236;DHT22;8734;59.272;17.780;2022-11-22T14:48:15;1.10;99.90
17236;DHT22;8734;59.272;17.780;2022-11-22T14:50:49;1.20;99.90
17236;DHT22;8734;59.272;17.780;2022-11-22T14:53:24;1.20;99.90
17236;DHT22;8734;59.272;17.780;2022-11-22T14:56:01;1.20;99.90
17236;DHT22;8734;59.272;17.780;2022-11-22T14:58:36;1.20;99.90
17236;DHT22;8734;59.272;17.780;2022-11-22T15:01:31;1.20;99.90
17236;DHT22;8734;59.272;17.780;2022-11-22T15:04:40;1.30;99.90
17236;DHT22;8734;59.272;17.780;2022-11-22T15:07:57;1.40;99.90
17236;DHT22;8734;59.272;17.780;2022-11-22T15:11:26;1.40;99.90
17236;DHT22;8734;59.272;17.780;2022-11-22T15:17:06;1.20;99.90
17236;DHT22;8734;59.272;17.780;2022-11-22T15:19:58;1.20;99.90
17236;DHT22;8734;59.272;17.780;2022-11-22T15:22:49;1.20;99.90
17236;DHT22;8734;59.272;17.780;2022-11-22T15:25:38;1.10;99.90
17236;DHT22;8734;59.272;17.780;2022-11-22T15:28:26;1.10;99.90
17236;DHT22;8734;59.272;17.780;2022-11-22T15:31:19;1.00;99.90
17236;DHT22;8734;59.272;17.780;2022-11-22T15:34:16;0.90;99.90
17236;DHT22;8734;59.272;17.780;2022-11-22T15:37:11;0.80;99.90
17236;DHT22;8734;59.272;17.780;2022-11-22T15:40:06;0.70;99.90
17236;DHT22;8734;59.272;17.780;2022-11-22T15:43:01;0.80;99.90
17236;DHT22;8734;59.272;17.780;2022-11-22T15:45:50;0.80;99.90
17236;DHT22;8734;59.272;17.780;2022-11-22T15:48:42;0.70;99.90
17236;DHT22;8734;59.272;17.780;2022-11-22T15:51:35;0.70;99.90
17236;DHT22;8734;59.272;17.780;2022-11-22T15:54:38;0.80;99.90
17236;DHT22;8734;59.272;17.780;2022-11-22T15:57:30;0.80;99.90
17236;DHT22;8734;59.272;17.780;2022-11-22T16:00:00;0.90;99.90
17236;DHT22;8734;59.272;17.780;2022-11-22T16:02:29;1.00;99.90
17236;DHT22;8734;59.272;17.780;2022-11-22T16:05:03;1.20;99.90
17236;DHT22;8734;59.272;17.780;2022-11-22T16:07:52;1.30;99.90
17236;DHT22;8734;59.272;17.780;2022-11-22T16:10:24;1.30;99.90
17236;DHT22;8734;59.272;17.780;2022-11-22T16:12:54;1.40;99.90
17236;DHT22;8734;59.272;17.780;2022-11-22T16:15:25;1.60;99.90
17236;DHT22;8734;59.272;17.780;2022-11-22T16:18:05;1.60;99.90
17236;DHT22;8734;59.272;17.780;2022-11-22T16:20:37;1.60;99.90
17236;DHT22;8734;59.272;17.780;2022-11-22T16:23:22;1.60;99.90
17236;DHT22;8734;59.272;17.780;2022-11-22T16:25:57;1.60;99.90
17236;DHT22;8734;59.272;17.780;2022-11-22T16:28:36;1.70;99.90
17236;DHT22;8734;59.272;17.780;2022-11-22T16:31:15;1.70;99.90
17236;DHT22;8734;59.272;17.780;2022-11-22T16:33:44;1.70;99.90
17236;DHT22;8734;59.272;17.780;2022-11-22T16:36:15;1.70;99.90